.
WxDataArchive / Data Records for 2012-11-10
2012-11-09 November 2012 2012-11-11

Data Records for Saturday, 10 November 2012

Time	Temp	Chill	HIndex	Humid	Dewpt	 Wind 	HiWind	WindDir	Rain 	Barom 
-----	----	-----	------	-----	-----	------	------	-------	-----	----- 
00:00	51.4	51.4	51.4	72	42.7	0	0	---	0.00	30.068 
00:05	51.4	51.4	51.4	72	42.7	0	1	90	0.00	30.068 
00:10	51.4	51.4	51.4	71	42.3	0	1	90	0.00	30.068 
00:15	51.6	51.6	51.6	71	42.5	0	0	---	0.00	30.064 
00:20	51.6	51.6	51.6	71	42.5	0	0	---	0.00	30.064 
00:25	51.6	51.6	51.6	71	42.5	0	0	---	0.00	30.064 
00:30	51.6	51.6	51.6	70	42.1	0	0	---	0.00	30.063 
00:35	51.6	51.6	51.6	70	42.1	0	0	---	0.00	30.063 
00:40	51.7	51.7	51.7	69	41.9	0	0	---	0.00	30.063 
00:45	51.9	51.9	51.9	69	42.1	0	2	90	0.00	30.063 
00:50	52.0	52.0	52.0	69	42.1	0	1	90	0.00	30.063 
00:55	52.2	52.2	52.2	68	42.0	0	1	90	0.00	30.063 
01:00	52.2	52.2	52.2	67	41.6	0	1	90	0.00	30.062 
01:05	52.3	52.3	52.3	67	41.7	0	0	---	0.00	30.062 
01:10	52.5	52.5	52.5	66	41.5	0	0	---	0.00	30.062 
01:15	52.6	52.6	52.6	66	41.6	0	1	90	0.00	30.059 
01:20	52.6	52.6	52.6	65	41.2	0	1	90	0.00	30.059 
01:25	52.8	52.8	52.8	65	41.4	0	0	---	0.00	30.059 
01:30	52.9	52.9	52.9	65	41.5	0	1	90	0.00	30.059 
01:35	52.9	52.9	52.9	64	41.1	0	1	90	0.00	30.059 
01:40	53.1	53.1	53.1	64	41.2	0	1	90	0.00	30.059 
01:45	53.2	53.2	53.2	63	40.9	0	2	90	0.00	30.058 
01:50	53.2	53.2	53.2	63	40.9	0	2	90	0.00	30.058 
01:55	53.3	53.3	53.3	62	40.6	0	2	90	0.00	30.058 
02:00	53.5	53.5	53.5	62	40.8	0	1	68	0.00	30.059 
02:05	53.5	53.5	53.5	62	40.8	0	2	68	0.00	30.059 
02:10	53.5	53.5	53.5	62	40.8	0	2	68	0.00	30.059 
02:15	53.5	53.5	53.5	62	40.8	0	2	68	0.00	30.059 
02:20	53.5	53.5	53.5	62	40.8	0	2	68	0.00	30.059 
02:25	53.5	53.5	53.5	62	40.8	0	1	68	0.00	30.059 
02:30	53.5	53.5	53.5	62	40.8	0	2	68	0.00	30.060 
02:35	53.5	53.5	53.5	62	40.8	0	1	68	0.00	30.060 
02:40	53.3	53.3	53.3	62	40.6	0	2	68	0.00	30.060 
02:45	53.5	53.5	53.5	62	40.8	0	3	68	0.00	30.064 
02:50	53.5	53.5	53.5	62	40.8	0	1	68	0.00	30.064 
02:55	53.5	53.5	53.5	62	40.8	0	1	68	0.00	30.064 
03:00	53.5	53.5	53.5	61	40.4	0	3	270	0.00	30.070 
03:05	53.5	53.5	53.5	61	40.4	0	2	270	0.00	30.070 
03:10	53.5	53.5	53.5	61	40.4	0	3	270	0.00	30.070 
03:15	53.5	53.5	53.5	61	40.4	1	3	248	0.00	30.072 
03:20	53.3	53.3	53.3	61	40.2	0	3	248	0.00	30.072 
03:25	53.3	53.3	53.3	61	40.2	0	1	248	0.00	30.072 
03:30	53.3	53.3	53.3	61	40.2	0	3	248	0.00	30.071 
03:35	53.3	53.3	53.3	61	40.2	0	1	248	0.00	30.071 
03:40	53.3	53.3	53.3	61	40.2	0	1	248	0.00	30.071 
03:45	53.2	53.2	53.2	61	40.1	0	2	248	0.00	30.069 
03:50	53.2	53.2	53.2	62	40.5	0	1	248	0.00	30.069 
03:55	53.1	53.1	53.1	62	40.4	0	1	248	0.00	30.069 
04:00	53.1	53.1	53.1	62	40.4	0	1	248	0.00	30.068 
04:05	52.9	52.9	52.9	62	40.2	0	2	248	0.00	30.068 
04:10	52.8	52.8	52.8	62	40.1	0	1	248	0.00	30.068 
04:15	52.8	52.8	52.8	62	40.1	0	2	248	0.00	30.070 
04:20	52.8	52.8	52.8	62	40.1	0	2	248	0.00	30.070 
04:25	52.6	52.6	52.6	62	40.0	0	1	248	0.00	30.070 
04:30	52.5	52.5	52.5	63	40.3	0	0	---	0.00	30.073 
04:35	52.5	52.5	52.5	63	40.3	0	1	248	0.00	30.073 
04:40	52.3	52.3	52.3	63	40.1	0	3	248	0.00	30.073 
04:45	52.3	52.3	52.3	63	40.1	0	2	225	0.00	30.076 
04:50	52.3	52.3	52.3	63	40.1	0	1	225	0.00	30.076 
04:55	52.3	52.3	52.3	63	40.1	0	1	225	0.00	30.076 
05:00	52.3	52.3	52.3	63	40.1	0	2	225	0.00	30.077 
05:05	52.2	52.2	52.2	64	40.4	0	1	225	0.00	30.077 
05:10	52.2	52.2	52.2	64	40.4	0	1	225	0.00	30.077 
05:15	52.2	52.2	52.2	64	40.4	0	1	225	0.00	30.078 
05:20	52.2	52.2	52.2	64	40.4	0	2	225	0.00	30.078 
05:25	52.2	52.2	52.2	63	40.0	0	1	225	0.00	30.078 
05:30	52.2	52.2	52.2	64	40.4	0	2	225	0.00	30.075 
05:35	52.2	52.2	52.2	64	40.4	0	2	225	0.00	30.075 
05:40	52.2	52.2	52.2	64	40.4	0	2	225	0.00	30.075 
05:45	52.0	52.0	52.0	64	40.2	0	0	---	0.00	30.074 
05:50	52.0	52.0	52.0	65	40.6	0	2	225	0.00	30.074 
05:55	52.0	52.0	52.0	65	40.6	0	2	225	0.00	30.074 
06:00	52.0	52.0	52.0	65	40.6	0	1	225	0.00	30.075 
06:05	51.9	51.9	51.9	65	40.5	0	0	---	0.00	30.075 
06:10	51.9	51.9	51.9	65	40.5	0	1	225	0.00	30.075 
06:15	51.7	51.7	51.7	65	40.3	0	1	225	0.00	30.079 
06:20	51.7	51.7	51.7	65	40.3	0	1	225	0.00	30.079 
06:25	51.7	51.7	51.7	65	40.3	0	1	225	0.00	30.079 
06:30	51.7	51.7	51.7	65	40.3	0	1	225	0.00	30.080 
06:35	51.7	51.7	51.7	65	40.3	0	2	225	0.00	30.080 
06:40	51.9	51.9	51.9	65	40.5	0	2	225	0.00	30.080 
06:45	51.9	51.9	51.9	65	40.5	0	2	225	0.00	30.080 
06:50	52.0	52.0	52.0	65	40.6	0	2	225	0.00	30.080 
06:55	52.0	52.0	52.0	65	40.6	0	1	225	0.00	30.080 
07:00	52.0	52.0	52.0	65	40.6	0	1	225	0.00	30.081 
07:05	52.0	52.0	52.0	65	40.6	0	2	225	0.00	30.081 
07:10	52.0	52.0	52.0	65	40.6	0	2	225	0.00	30.081 
07:15	52.0	52.0	52.0	65	40.6	0	3	225	0.00	30.085 
07:20	52.0	52.0	52.0	65	40.6	0	1	225	0.00	30.085 
07:25	52.0	52.0	52.0	65	40.6	0	1	225	0.00	30.085 
07:30	51.9	51.9	51.9	65	40.5	0	1	225	0.00	30.088 
07:35	51.9	51.9	51.9	65	40.5	0	2	225	0.00	30.088 
07:40	51.9	51.9	51.9	65	40.5	0	2	225	0.00	30.088 
07:45	52.0	52.0	52.0	65	40.6	0	1	225	0.00	30.092 
07:50	52.0	52.0	52.0	65	40.6	0	2	225	0.00	30.092 
07:55	52.0	52.0	52.0	65	40.6	0	1	225	0.00	30.092 
08:00	52.0	52.0	52.0	66	41.0	0	2	225	0.00	30.095 
08:05	52.2	52.2	52.2	65	40.8	0	1	225	0.00	30.095 
08:10	52.3	52.3	52.3	65	40.9	1	3	225	0.00	30.095 
08:15	52.5	52.5	52.5	65	41.1	1	4	225	0.00	30.101 
08:20	52.6	52.6	52.6	64	40.8	1	3	225	0.00	30.101 
08:25	52.8	52.8	52.8	64	41.0	0	2	338	0.00	30.101 
08:30	52.9	52.9	52.9	64	41.1	1	3	248	0.00	30.105 
08:35	53.1	53.1	53.1	63	40.8	1	3	270	0.00	30.105 
08:40	53.3	53.3	53.3	63	41.0	0	3	270	0.00	30.105 
08:45	53.5	53.5	53.5	62	40.8	0	3	225	0.00	30.107 
08:50	53.6	53.6	53.6	62	40.9	1	2	248	0.00	30.107 
08:55	53.9	53.9	53.9	62	41.2	0	2	248	0.00	30.107 
09:00	54.1	54.1	54.1	61	41.0	1	5	248	0.00	30.107 
09:05	54.2	54.2	54.2	61	41.0	0	4	248	0.00	30.107 
09:10	54.4	54.4	54.4	61	41.2	0	2	248	0.00	30.107 
09:15	54.7	54.7	54.7	61	41.5	0	1	248	0.00	30.103 
09:20	54.8	54.8	54.8	60	41.2	0	2	270	0.00	30.103 
09:25	55.0	55.0	55.0	61	41.8	0	3	270	0.00	30.103 
09:30	55.1	55.1	55.1	61	41.9	0	2	270	0.00	30.097 
09:35	55.3	55.3	55.3	61	42.1	0	3	270	0.00	30.097 
09:40	55.4	55.4	55.4	60	41.7	0	3	225	0.00	30.097 
09:45	55.6	55.6	55.6	60	41.9	0	2	225	0.00	30.093 
09:50	55.6	55.6	55.6	59	41.5	1	5	225	0.00	30.093 
09:55	55.7	55.7	55.7	60	42.0	1	3	225	0.00	30.093 
10:00	55.7	55.7	55.7	59	41.6	1	3	112	0.00	30.077 
10:05	56.2	56.2	56.2	60	42.5	1	3	90	0.00	30.077 
10:10	56.6	56.6	56.6	59	42.4	1	3	45	0.00	30.077 
10:15	57.0	57.0	57.0	58	42.4	2	6	90	0.00	30.082 
10:20	57.3	57.3	57.3	58	42.6	1	6	248	0.00	30.082 
10:25	57.6	57.6	57.6	57	42.5	1	5	225	0.00	30.082 
10:30	57.8	57.8	57.8	57	42.7	2	5	248	0.00	30.080 
10:35	58.1	58.1	58.1	56	42.5	2	6	248	0.00	30.080 
10:40	58.3	58.3	58.3	55	42.2	2	6	270	0.00	30.080 
10:45	58.4	58.4	58.4	55	42.3	2	6	270	0.00	30.076 
10:50	58.7	58.7	58.7	54	42.1	2	7	248	0.00	30.076 
10:55	59.2	59.2	59.2	56	43.5	1	4	68	0.00	30.076 
11:00	59.6	59.6	59.6	55	43.4	1	7	315	0.00	30.073 
11:05	59.9	59.9	59.9	55	43.7	1	4	270	0.00	30.073 
11:10	60.4	60.4	60.4	54	43.7	1	4	315	0.00	30.073 
11:15	60.7	60.7	60.7	53	43.5	2	5	248	0.00	30.075 
11:20	60.9	60.9	60.9	54	44.1	2	6	248	0.00	30.075 
11:25	61.2	61.2	61.2	52	43.4	1	5	248	0.00	30.075 
11:30	61.3	61.3	61.3	52	43.5	1	5	270	0.00	30.074 
11:35	61.6	61.6	61.6	51	43.3	1	7	270	0.00	30.074 
11:40	62.0	62.0	62.0	53	44.7	1	4	45	0.00	30.074 
11:45	62.3	62.3	62.3	50	43.4	2	5	248	0.00	30.071 
11:50	62.4	62.4	62.4	51	44.0	1	5	225	0.00	30.071 
11:55	62.6	62.6	62.6	50	43.7	1	4	270	0.00	30.071 
12:00	62.6	62.6	62.6	51	44.2	1	4	248	0.00	30.060 
12:05	62.7	62.7	62.7	51	44.3	1	5	248	0.00	30.060 
12:10	62.9	62.9	62.9	52	45.0	1	4	90	0.00	30.060 
12:15	62.9	62.9	62.9	50	44.0	2	6	248	0.00	30.056 
12:20	62.9	62.9	62.9	51	44.5	2	7	270	0.00	30.056 
12:25	63.1	63.1	63.1	51	44.7	1	3	270	0.00	30.056 
12:30	63.2	63.2	63.2	51	44.8	1	4	248	0.00	30.046 
12:35	63.4	63.4	63.4	52	45.5	1	4	68	0.00	30.046 
12:40	63.2	63.2	63.2	51	44.8	1	5	248	0.00	30.046 
12:45	63.2	63.2	63.2	52	45.3	1	4	22	0.00	30.043 
12:50	63.1	63.1	63.1	53	45.7	1	3	248	0.00	30.043 
12:55	62.9	62.9	62.9	51	44.5	2	5	248	0.00	30.043 
13:00	63.1	63.1	63.1	52	45.2	1	5	248	0.00	30.041 
13:05	63.2	63.2	63.2	52	45.3	2	6	248	0.00	30.041 
13:10	63.5	63.5	63.5	53	46.1	1	4	248	0.00	30.041 
13:15	63.7	63.7	63.7	52	45.7	1	4	248	0.00	30.030 
13:20	64.0	64.0	64.0	52	46.0	1	3	248	0.00	30.030 
13:25	63.9	63.9	63.9	53	46.4	2	5	112	0.00	30.030 
13:30	63.7	63.7	63.7	53	46.2	1	5	112	0.00	30.023 
13:35	63.5	63.5	63.5	52	45.6	1	4	248	0.00	30.023 
13:40	63.7	63.7	63.7	53	46.2	1	5	90	0.00	30.023 
13:45	63.7	63.7	63.7	53	46.2	1	4	90	0.00	30.020 
13:50	63.9	63.9	63.9	53	46.4	1	4	315	0.00	30.020 
13:55	64.0	64.0	64.0	52	46.0	2	6	90	0.00	30.020 
14:00	64.3	64.3	64.3	52	46.3	2	5	90	0.00	30.008 
14:05	64.7	64.7	64.7	52	46.7	1	3	90	0.00	30.008 
14:10	65.2	65.2	65.2	52	47.1	1	5	90	0.00	30.008 
14:15	65.5	65.5	65.5	51	46.9	2	4	90	0.00	30.006 
14:20	66.0	66.0	66.0	52	47.9	1	6	90	0.00	30.006 
14:25	66.3	66.3	66.3	51	47.6	1	4	90	0.00	30.006 
14:30	66.6	66.6	66.6	52	48.4	1	4	112	0.00	30.007 
14:35	66.8	66.8	66.8	51	48.1	1	4	68	0.00	30.007 
14:40	66.9	66.9	66.9	52	48.7	1	5	90	0.00	30.007 
14:45	67.1	67.1	67.1	51	48.4	1	4	90	0.00	30.004 
14:50	67.3	67.3	67.3	50	48.0	2	7	112	0.00	30.004 
14:55	67.4	67.4	67.4	51	48.6	1	6	270	0.00	30.004 
15:00	67.6	67.6	67.6	51	48.8	1	6	45	0.00	30.001 
15:05	67.8	67.8	67.8	51	49.0	1	5	45	0.00	30.001 
15:10	68.1	68.1	68.1	50	48.7	2	9	248	0.00	30.001 
15:15	68.3	68.3	68.3	50	48.9	1	4	45	0.00	30.004 
15:20	68.3	68.3	68.3	51	49.5	1	5	45	0.00	30.004 
15:25	68.4	68.4	68.4	50	49.0	1	5	270	0.00	30.004 
15:30	68.6	68.6	68.6	50	49.2	1	5	270	0.00	30.004 
15:35	68.8	68.8	68.8	50	49.4	1	3	22	0.00	30.004 
15:40	68.8	68.8	68.8	50	49.4	1	3	248	0.00	30.004 
15:45	68.8	68.8	68.8	50	49.4	1	4	248	0.00	30.004 
15:50	68.6	68.6	68.6	50	49.2	1	4	45	0.00	30.004 
15:55	68.6	68.6	68.6	50	49.2	1	4	248	0.00	30.004 
16:00	68.6	68.6	68.6	50	49.2	1	6	248	0.00	30.006 
16:05	68.4	68.4	68.4	50	49.0	2	6	270	0.00	30.006 
16:10	68.3	68.3	68.3	50	48.9	1	4	248	0.00	30.006 
16:15	68.3	68.3	68.3	50	48.9	1	4	248	0.00	30.014 
16:20	68.1	68.1	68.1	50	48.7	2	6	90	0.00	30.014 
16:25	68.1	68.1	68.1	50	48.7	2	7	248	0.00	30.014 
16:30	67.8	67.8	67.8	51	49.0	1	4	292	0.00	30.012 
16:35	67.4	67.4	67.4	51	48.6	1	4	68	0.00	30.012 
16:40	67.3	67.3	67.3	52	49.1	1	3	248	0.00	30.012 
16:45	67.1	67.1	67.1	51	48.4	1	3	248	0.00	30.019 
16:50	66.9	66.9	66.9	52	48.7	1	4	248	0.00	30.019 
16:55	66.6	66.6	66.6	52	48.4	1	4	248	0.00	30.019 
17:00	66.4	66.4	66.4	52	48.2	0	2	248	0.00	30.022 
17:05	66.3	66.3	66.3	52	48.1	1	3	248	0.00	30.022 
17:10	66.1	66.1	66.1	53	48.5	0	3	248	0.00	30.022 
17:15	65.8	65.8	65.8	53	48.2	0	1	248	0.00	30.027 
17:20	65.5	65.5	65.5	53	47.9	0	3	248	0.00	30.027 
17:25	65.3	65.3	65.3	53	47.7	0	2	248	0.00	30.027 
17:30	65.2	65.2	65.2	54	48.1	0	1	248	0.00	30.039 
17:35	64.8	64.8	64.8	54	47.8	0	1	248	0.00	30.039 
17:40	64.5	64.5	64.5	54	47.5	0	1	248	0.00	30.039 
17:45	64.2	64.2	64.2	54	47.2	0	1	248	0.00	30.045 
17:50	63.9	63.9	63.9	55	47.4	0	1	248	0.00	30.045 
17:55	63.5	63.5	63.5	55	47.0	0	0	---	0.00	30.045 
18:00	63.1	63.1	63.1	56	47.1	0	0	---	0.00	30.048 
18:05	62.6	62.6	62.6	57	47.1	0	0	---	0.00	30.048 
18:10	62.3	62.3	62.3	57	46.9	0	1	248	0.00	30.048 
18:15	61.8	61.8	61.8	58	46.9	0	0	---	0.00	30.048 
18:20	61.5	61.5	61.5	58	46.6	0	1	248	0.00	30.048 
18:25	61.5	61.5	61.5	58	46.6	0	1	248	0.00	30.048 
18:30	61.5	61.5	61.5	58	46.6	0	1	248	0.00	30.044 
18:35	61.6	61.6	61.6	58	46.7	0	1	248	0.00	30.044 
18:40	61.6	61.6	61.6	58	46.7	0	1	248	0.00	30.044 
18:45	61.8	61.8	61.8	58	46.9	0	3	90	0.00	30.052 
18:50	61.8	61.8	61.8	57	46.4	0	1	90	0.00	30.052 
18:55	61.8	61.8	61.8	57	46.4	0	3	90	0.00	30.052 
19:00	61.8	61.8	61.8	57	46.4	0	2	90	0.00	30.055 
19:05	61.8	61.8	61.8	57	46.4	0	2	112	0.00	30.055 
19:10	61.6	61.6	61.6	57	46.2	0	1	112	0.00	30.055 
19:15	61.5	61.5	61.5	58	46.6	0	2	112	0.00	30.051 
19:20	61.5	61.5	61.5	58	46.6	0	2	112	0.00	30.051 
19:25	61.3	61.3	61.3	58	46.4	1	3	112	0.00	30.051 
19:30	61.5	61.5	61.5	57	46.1	1	3	112	0.00	30.048 
19:35	61.6	61.6	61.6	57	46.2	1	4	112	0.00	30.048 
19:40	61.8	61.8	61.8	56	45.9	1	4	90	0.00	30.048 
19:45	61.8	61.8	61.8	56	45.9	1	4	112	0.00	30.045 
19:50	62.0	62.0	62.0	56	46.1	1	5	112	0.00	30.045 
19:55	62.0	62.0	62.0	56	46.1	1	3	0	0.00	30.045 
20:00	62.0	62.0	62.0	56	46.1	1	3	90	0.00	30.051 
20:05	61.8	61.8	61.8	56	45.9	1	4	112	0.00	30.051 
20:10	61.6	61.6	61.6	57	46.2	1	3	45	0.00	30.051 
20:15	61.5	61.5	61.5	56	45.7	1	3	45	0.00	30.045 
20:20	61.5	61.5	61.5	57	46.1	1	4	90	0.00	30.045 
20:25	61.5	61.5	61.5	56	45.7	0	2	45	0.00	30.045 
20:30	61.5	61.5	61.5	56	45.7	1	4	45	0.00	30.045 
20:35	61.6	61.6	61.6	56	45.7	1	5	68	0.00	30.045 
20:40	61.6	61.6	61.6	56	45.7	1	3	112	0.00	30.045 
20:45	61.6	61.6	61.6	56	45.7	1	4	90	0.00	30.047 
20:50	61.6	61.6	61.6	56	45.7	1	3	45	0.00	30.047 
20:55	61.5	61.5	61.5	57	46.1	1	4	45	0.00	30.047 
21:00	61.5	61.5	61.5	57	46.1	0	4	45	0.00	30.049 
21:05	61.5	61.5	61.5	57	46.1	0	3	225	0.00	30.049 
21:10	61.5	61.5	61.5	57	46.1	1	2	68	0.00	30.049 
21:15	61.5	61.5	61.5	57	46.1	1	3	270	0.00	30.048 
21:20	61.5	61.5	61.5	57	46.1	0	2	248	0.00	30.048 
21:25	61.3	61.3	61.3	57	45.9	1	3	248	0.00	30.048 
21:30	61.3	61.3	61.3	57	45.9	0	2	248	0.00	30.050 
21:35	61.5	61.5	61.5	57	46.1	1	4	68	0.00	30.050 
21:40	61.5	61.5	61.5	57	46.1	1	4	248	0.00	30.050 
21:45	61.5	61.5	61.5	56	45.7	1	4	248	0.00	30.050 
21:50	61.3	61.3	61.3	56	45.5	1	4	225	0.00	30.050 
21:55	61.3	61.3	61.3	56	45.5	1	4	225	0.00	30.050 
22:00	61.0	61.0	61.0	57	45.7	0	3	68	0.00	30.051 
22:05	60.9	60.9	60.9	57	45.6	1	5	270	0.00	30.051 
22:10	60.7	60.7	60.7	57	45.4	0	3	248	0.00	30.051 
22:15	60.5	60.5	60.5	58	45.6	0	6	0	0.00	30.044 
22:20	60.4	60.4	60.4	58	45.6	1	5	248	0.00	30.044 
22:25	60.2	60.2	60.2	58	45.4	1	4	248	0.00	30.044 
22:30	60.1	60.1	60.1	58	45.3	1	4	248	0.00	30.044 
22:35	60.1	60.1	60.1	58	45.3	1	5	270	0.00	30.044 
22:40	59.9	59.9	59.9	58	45.1	1	5	292	0.00	30.044 
22:45	59.8	59.8	59.8	58	45.0	1	4	248	0.00	30.043 
22:50	59.6	59.6	59.6	58	44.8	1	3	248	0.00	30.043 
22:55	59.5	59.5	59.5	58	44.7	1	4	248	0.00	30.043 
23:00	59.5	59.5	59.5	58	44.7	1	6	248	0.00	30.043 
23:05	59.5	59.5	59.5	58	44.7	1	4	248	0.00	30.043 
23:10	59.5	59.5	59.5	58	44.7	1	6	248	0.00	30.043 
23:15	59.3	59.3	59.3	58	44.5	1	4	270	0.00	30.042 
23:20	59.3	59.3	59.3	58	44.5	1	3	270	0.00	30.042 
23:25	59.0	59.0	59.0	58	44.2	0	3	270	0.00	30.042 
23:30	58.9	58.9	58.9	59	44.6	1	3	270	0.00	30.045 
23:35	58.7	58.7	58.7	59	44.4	0	4	270	0.00	30.045 
23:40	58.9	58.9	58.9	58	44.1	1	4	270	0.00	30.045 
23:45	58.9	58.9	58.9	58	44.1	1	5	248	0.00	30.049 
23:50	58.9	58.9	58.9	58	44.1	0	2	248	0.00	30.049 
23:55	58.7	58.7	58.7	58	44.0	1	3	248	0.00	30.049 

CoCoRaHS
IN-AL-39
A2 Web Hosting
Creative Commons License
GoDaddy
search engine by freefind advanced

loaded 2018-11-22 05:53:06 • last modified 2010-11-18 10:43:29
Privacy PolicyDisclaimer
• wx.awcolley.com is powered by PmWiki v.2002016 •
• all content (unless otherwise noted) © 2018 A W Colley